createdAt,value
2023-05-13T00:01:39.121Z,101788.47
2023-05-13T00:04:07.154Z,101786.84
2023-05-13T00:06:38.421Z,101783.22
2023-05-13T00:09:06.533Z,101786.84
2023-05-13T00:11:34.460Z,101791.66
2023-05-13T00:14:02.638Z,101783.56
2023-05-13T01:06:13.952Z,101812.00
2023-05-13T01:08:59.832Z,101811.19
2023-05-13T01:11:35.241Z,101819.63
2023-05-13T01:14:34.192Z,101814.38
2023-05-13T01:46:23.735Z,101835.66
2023-05-13T01:48:52.075Z,101839.28
2023-05-13T01:51:22.473Z,101843.25
2023-05-13T01:53:55.954Z,101843.25
2023-05-13T01:56:24.599Z,101836.00
2023-05-13T01:58:52.957Z,101836.00
2023-05-13T02:51:13.371Z,101849.56
2023-05-13T02:53:55.904Z,101848.75
2023-05-13T02:56:29.300Z,101853.56
2023-05-13T02:59:14.272Z,101849.56
2023-05-13T03:48:34.434Z,101874.38
2023-05-13T03:51:04.579Z,101872.03
2023-05-13T03:53:32.822Z,101881.63
2023-05-13T03:56:01.097Z,101876.84
2023-05-13T03:58:29.642Z,101880.00
2023-05-13T05:49:28.957Z,101973.84
2023-05-13T05:51:58.404Z,101978.28
2023-05-13T05:54:28.748Z,101969.88
2023-05-13T05:56:57.173Z,101976.31
2023-05-13T05:59:25.411Z,101972.31
2023-05-13T06:01:55.755Z,101967.53
2023-05-13T06:04:25.034Z,101968.34
2023-05-13T06:07:00.858Z,101967.53
2023-05-13T06:09:36.105Z,101970.31
2023-05-13T06:12:09.760Z,101968.34
2023-05-13T06:14:41.712Z,101970.31
2023-05-13T06:17:11.155Z,101961.09
2023-05-13T06:19:39.897Z,101965.19
2023-05-13T06:22:13.622Z,101960.41
2023-05-13T06:24:47.864Z,101960.03
2023-05-13T06:27:21.075Z,101960.50
2023-05-13T06:30:03.997Z,101962.50
2023-05-13T06:32:32.986Z,101970.09
2023-05-13T06:35:01.032Z,101968.47
2023-05-13T06:37:33.885Z,101960.41
2023-05-13T06:40:02.458Z,101972.44
2023-05-13T06:42:43.887Z,101972.44
2023-05-13T06:45:37.046Z,101966.84
2023-05-13T06:48:40.407Z,101968.47
2023-05-13T06:51:19.073Z,101974.53
2023-05-13T06:53:51.712Z,101969.75
2023-05-13T06:56:19.693Z,101959.34
2023-05-13T06:59:06.229Z,101961.31
2023-05-13T07:01:35.878Z,101971.72
2023-05-13T07:06:54.950Z,101963.31
2023-05-13T07:09:24.662Z,101953.75
2023-05-13T07:11:55.500Z,101950.94
2023-05-13T07:14:25.501Z,101952.56
2023-05-13T07:16:54.259Z,101941.34
2023-05-13T07:19:22.642Z,101938.97
2023-05-13T07:22:20.858Z,101946.22
2023-05-13T07:24:55.186Z,101929.38
2023-05-13T07:27:24.703Z,101933.00
2023-05-13T07:29:53.809Z,101933.00
2023-05-13T07:32:35.208Z,101936.63
2023-05-13T07:42:12.386Z,101929.88
2023-05-13T07:44:46.315Z,101918.25
2023-05-13T07:47:14.941Z,101929.19
2023-05-13T07:49:43.255Z,101916.31
2023-05-13T07:52:11.371Z,101920.75
2023-05-13T07:54:39.555Z,101911.03
2023-05-13T07:57:07.910Z,101913.25
2023-05-13T07:59:45.101Z,101904.59
2023-05-13T08:02:17.292Z,101911.03
2023-05-13T08:04:45.551Z,101910.19
2023-05-13T08:07:15.614Z,101915.81
2023-05-13T08:09:43.892Z,101913.50
2023-05-13T08:12:20.818Z,101913.50
2023-05-13T08:14:49.192Z,101916.75
2023-05-13T08:17:42.062Z,101915.13
2023-05-13T08:20:15.422Z,101919.13
2023-05-13T08:22:44.373Z,101928.69
2023-05-13T08:25:16.191Z,101935.47
2023-05-13T08:27:47.489Z,101927.06
2023-05-13T08:30:16.453Z,101927.06
2023-05-13T08:32:44.896Z,101920.63
2023-05-13T08:35:44.671Z,101924.25
2023-05-13T08:38:23.343Z,101931.16
2023-05-13T08:40:54.352Z,101919.31
2023-05-13T08:43:22.442Z,101934.31
2023-05-13T08:45:51.085Z,101925.06
2023-05-13T08:48:19.656Z,101941.59
2023-05-13T08:50:48.246Z,101934.31
2023-05-13T08:53:18.454Z,101938.28
2023-05-13T08:55:46.818Z,101928.69
2023-05-13T09:01:52.730Z,101933.97
2023-05-13T09:04:32.643Z,101925.88
2023-05-13T09:07:05.716Z,101924.72
2023-05-13T09:09:37.935Z,101925.88
2023-05-13T09:12:06.952Z,101928.69
2023-05-13T09:14:37.534Z,101930.34
2023-05-13T09:17:06.162Z,101930.34
2023-05-13T09:19:34.450Z,101913.00
2023-05-13T09:22:02.976Z,101919.44
2023-05-13T09:24:31.191Z,101917.44
2023-05-13T09:27:03.643Z,101908.22
2023-05-13T09:29:32.010Z,101916.31
2023-05-13T09:32:01.027Z,101920.75
2023-05-13T09:34:32.512Z,101926.38
2023-05-13T09:37:04.464Z,101920.75
2023-05-13T09:39:34.066Z,101920.75
2023-05-13T09:42:05.484Z,101914.31
2023-05-13T09:44:34.172Z,101919.13
2023-05-13T09:47:03.032Z,101915.13
2023-05-13T09:49:31.729Z,101919.94
2023-05-13T09:52:02.150Z,101919.13
2023-05-13T09:54:35.618Z,101919.13
2023-05-13T09:57:05.465Z,101913.94
2023-05-13T09:59:33.614Z,101915.13
2023-05-13T10:02:01.820Z,101912.31
2023-05-13T10:04:29.995Z,101905.88
2023-05-13T10:06:58.331Z,101902.72
2023-05-13T10:09:29.609Z,101898.28
2023-05-13T10:11:57.497Z,101898.28
2023-05-13T10:14:28.312Z,101907.88
2023-05-13T10:16:59.016Z,101906.69
2023-05-13T10:19:29.997Z,101898.28
2023-05-13T10:21:58.584Z,101898.75
2023-05-13T10:24:32.929Z,101904.38
2023-05-13T10:27:05.097Z,101899.91
2023-05-13T10:29:37.951Z,101879.78
2023-05-13T10:32:14.935Z,101888.22
2023-05-13T10:34:48.450Z,101909.50
2023-05-13T10:41:54.338Z,101909.50
2023-05-13T10:44:24.397Z,101901.56
2023-05-13T10:47:02.245Z,101895.94
2023-05-13T10:49:34.519Z,101894.28
2023-05-13T10:52:10.431Z,101890.34
2023-05-13T10:54:59.123Z,101901.56
2023-05-13T10:57:29.044Z,101888.66
2023-05-13T11:00:18.567Z,101889.50
2023-05-13T11:02:48.918Z,101895.94
2023-05-13T11:05:32.059Z,101887.53
2023-05-13T11:08:00.592Z,101901.56
2023-05-13T11:10:42.953Z,101899.56
2023-05-13T11:13:23.789Z,101880.72
2023-05-13T11:18:46.533Z,101895.09
2023-05-13T11:21:22.500Z,101879.09
2023-05-13T11:24:06.178Z,101884.72
2023-05-13T11:26:49.215Z,101870.66
2023-05-13T11:29:17.271Z,101875.09
2023-05-13T11:31:50.237Z,101863.88
2023-05-13T11:34:19.986Z,101869.50
2023-05-13T11:36:48.198Z,101864.69
2023-05-13T11:39:16.874Z,101868.78
2023-05-13T11:41:46.084Z,101855.91
2023-05-13T11:44:14.600Z,101874.75
2023-05-13T11:46:55.240Z,101872.75
2023-05-13T11:49:37.247Z,101872.75
2023-05-13T11:52:05.900Z,101871.94
2023-05-13T11:54:34.011Z,101867.13
2023-05-13T11:57:02.049Z,101857.53
2023-05-13T11:59:35.999Z,101866.78
2023-05-13T12:02:10.111Z,101859.19
2023-05-13T12:04:39.480Z,101854.72
2023-05-13T12:07:07.877Z,101844.66
2023-05-13T12:09:43.550Z,101846.28
2023-05-13T12:12:17.875Z,101851.91
2023-05-13T12:14:50.275Z,101851.91
2023-05-13T12:17:18.622Z,101840.69
2023-05-13T12:20:07.095Z,101847.09
2023-05-13T12:25:42.749Z,101851.91
2023-05-13T12:28:11.974Z,101838.34
2023-05-13T12:33:52.219Z,101864.09
2023-05-13T12:36:36.012Z,101852.84
2023-05-13T12:39:11.289Z,101855.66
2023-05-13T12:41:48.550Z,101858.47
2023-05-13T12:44:17.533Z,101852.03
2023-05-13T12:46:51.971Z,101854.84
2023-05-13T12:49:25.062Z,101838.34
2023-05-13T12:52:05.735Z,101852.84
2023-05-13T12:55:20.149Z,101846.06
2023-05-13T12:58:00.642Z,101841.25
2023-05-13T13:00:46.223Z,101843.25
2023-05-13T13:06:08.728Z,101847.22
2023-05-13T13:08:39.837Z,101842.78
2023-05-13T13:11:08.602Z,101836.00
2023-05-13T13:13:42.709Z,101834.38
2023-05-13T13:16:12.385Z,101838.00
2023-05-13T13:18:41.474Z,101847.22
2023-05-13T13:21:10.429Z,101840.09
2023-05-13T13:23:39.156Z,101840.91
2023-05-13T13:26:07.853Z,101842.56
2023-05-13T13:28:35.837Z,101836.94
2023-05-13T13:31:08.346Z,101832.50
2023-05-13T13:33:37.524Z,101835.28
2023-05-13T13:36:06.332Z,101839.25
2023-05-13T13:38:34.593Z,101839.25
2023-05-13T13:41:02.913Z,101833.63
2023-05-13T13:43:30.965Z,101832.81
2023-05-13T13:45:59.307Z,101826.88
2023-05-13T13:48:37.766Z,101822.88
2023-05-13T13:51:08.953Z,101815.28
2023-05-13T13:53:49.849Z,101820.88
2023-05-13T13:56:21.923Z,101821.25
2023-05-13T13:58:51.341Z,101813.63
2023-05-13T14:01:23.853Z,101818.44
2023-05-13T14:04:01.933Z,101807.19
2023-05-13T14:06:32.728Z,101820.06
2023-05-13T14:09:04.106Z,101818.44
2023-05-13T14:11:36.562Z,101820.53
2023-05-13T14:14:05.110Z,101811.28
2023-05-13T14:16:36.786Z,101805.66
2023-05-13T14:19:11.747Z,101806.03
2023-05-13T14:21:41.746Z,101800.41
2023-05-13T14:24:12.930Z,101800.78
2023-05-13T14:26:45.078Z,101801.59
2023-05-13T14:29:15.356Z,101795.47
2023-05-13T14:31:51.088Z,101788.69
2023-05-13T14:34:24.542Z,101793.50
2023-05-13T14:36:54.051Z,101791.97
2023-05-13T14:39:26.330Z,101784.00
2023-05-13T14:41:56.510Z,101795.25
2023-05-13T14:44:27.219Z,101796.88
2023-05-13T14:46:57.940Z,101801.66
2023-05-13T14:49:34.070Z,101798.03
2023-05-13T14:52:07.070Z,101793.59
2023-05-13T14:54:38.601Z,101793.59
2023-05-13T14:57:09.112Z,101786.34
2023-05-13T14:59:40.156Z,101793.59
2023-05-13T15:02:15.084Z,101786.81
2023-05-13T15:04:48.618Z,101791.25
2023-05-13T15:07:23.429Z,101781.66
2023-05-13T15:09:53.640Z,101792.06
2023-05-13T15:12:25.059Z,101802.47
2023-05-13T15:14:55.031Z,101789.63
2023-05-13T15:17:24.960Z,101790.78
2023-05-13T15:19:58.234Z,101790.78
2023-05-13T15:22:33.322Z,101785.19
2023-05-13T15:25:03.098Z,101785.19
2023-05-13T15:27:32.306Z,101783.19
2023-05-13T15:30:02.170Z,101780.00
2023-05-13T15:32:30.956Z,101780.81
2023-05-13T15:35:01.226Z,101780.81
2023-05-13T15:37:29.582Z,101780.81
2023-05-13T15:40:01.203Z,101782.00
2023-05-13T15:42:34.933Z,101784.00
2023-05-13T15:45:06.436Z,101771.13
2023-05-13T15:47:36.034Z,101770.31
2023-05-13T15:50:10.625Z,101759.88
2023-05-13T15:52:39.754Z,101767.13
2023-05-13T15:55:12.321Z,101767.94
2023-05-13T15:57:44.252Z,101776.03
2023-05-13T16:00:15.139Z,101770.44
2023-05-13T16:02:45.963Z,101773.25
2023-05-13T16:05:20.351Z,101780.81
2023-05-13T16:07:52.998Z,101775.56
2023-05-13T16:10:29.742Z,101777.19
2023-05-13T16:13:00.979Z,101774.38
2023-05-13T16:15:49.825Z,101778.38
2023-05-13T16:18:21.264Z,101791.97
2023-05-13T16:21:02.826Z,101793.59
2023-05-13T16:23:39.345Z,101795.25
2023-05-13T16:26:16.467Z,101792.44
2023-05-13T16:29:10.618Z,101803.22
2023-05-13T16:31:45.663Z,101812.47
2023-05-13T16:34:15.162Z,101818.91
2023-05-13T16:36:46.359Z,101819.25
2023-05-13T16:39:21.233Z,101823.25
2023-05-13T16:42:01.508Z,101822.41
2023-05-13T16:44:33.774Z,101823.25
2023-05-13T16:47:11.133Z,101823.25
2023-05-13T16:49:40.026Z,101831.31
2023-05-13T16:52:10.319Z,101833.75
2023-05-13T16:54:39.116Z,101834.13
2023-05-13T16:57:07.204Z,101836.94
2023-05-13T16:59:35.701Z,101831.31
2023-05-13T17:02:05.075Z,101825.69
2023-05-13T17:08:18.982Z,101844.53
2023-05-13T17:23:25.402Z,101853.78
2023-05-13T17:26:43.501Z,101861.41
2023-05-13T17:29:38.524Z,101861.03
2023-05-13T17:32:11.660Z,101867.84
2023-05-13T17:34:43.064Z,101867.84
2023-05-13T17:37:19.700Z,101862.22
2023-05-13T17:40:03.059Z,101866.66
2023-05-13T17:42:36.008Z,101868.28
2023-05-13T17:45:57.420Z,101848.97
2023-05-13T17:48:19.386Z,101863.84
2023-05-13T17:50:53.616Z,101865.03
2023-05-13T17:53:33.862Z,101870.66
2023-05-13T17:56:37.423Z,101885.88
2023-05-13T17:59:17.769Z,101883.38
2023-05-13T18:01:55.923Z,101889.81
2023-05-13T18:04:40.188Z,101883.38
2023-05-13T18:07:16.399Z,101882.25
2023-05-13T18:09:52.418Z,101885.88
2023-05-13T18:12:53.704Z,101875.78
2023-05-13T18:15:31.239Z,101874.16
2023-05-13T18:18:10.691Z,101878.13
2023-05-13T18:21:21.290Z,101886.56
2023-05-13T18:23:53.932Z,101885.75
2023-05-13T18:26:33.081Z,101891.72
2023-05-13T18:29:02.671Z,101890.56
2023-05-13T18:31:40.466Z,101893.81
2023-05-13T18:34:26.643Z,101889.00
2023-05-13T18:37:31.424Z,101888.19
2023-05-13T18:40:15.762Z,101885.75
2023-05-13T18:46:23.263Z,101877.69
2023-05-13T18:49:36.453Z,101890.56
2023-05-13T18:52:11.870Z,101888.91
2023-05-13T18:57:27.852Z,101900.97
2023-05-13T19:00:06.064Z,101898.97
2023-05-13T19:02:35.873Z,101890.56
2023-05-13T19:05:04.567Z,101900.63
2023-05-13T19:07:35.534Z,101892.19
2023-05-13T19:10:05.959Z,101892.19
2023-05-13T19:12:38.552Z,101902.59
2023-05-13T19:15:17.748Z,101896.16
2023-05-13T19:18:01.010Z,101896.16
2023-05-13T19:20:49.875Z,101889.38
2023-05-13T19:24:00.047Z,101895.34
2023-05-13T19:26:39.875Z,101907.88
2023-05-13T19:29:42.916Z,101897.81
2023-05-13T19:32:26.556Z,101899.78
2023-05-13T19:35:06.730Z,101905.41
2023-05-13T19:37:39.179Z,101903.41
2023-05-13T19:40:25.723Z,101899.78
2023-05-13T19:42:57.388Z,101890.56
2023-05-13T19:45:26.047Z,101894.53
2023-05-13T19:47:59.194Z,101897.34
2023-05-13T19:50:28.761Z,101893.34
2023-05-13T19:53:03.988Z,101892.19
2023-05-13T19:55:39.118Z,101893.81
2023-05-13T19:58:19.469Z,101892.19
2023-05-13T20:00:49.087Z,101888.91
2023-05-13T20:03:22.419Z,101895.81
2023-05-13T20:06:10.904Z,101898.63
2023-05-13T20:09:05.972Z,101898.63
2023-05-13T20:11:45.922Z,101897.81
2023-05-13T20:14:21.207Z,101893.81
2023-05-13T20:17:02.011Z,101895.44
2023-05-13T20:19:42.737Z,101897.09
2023-05-13T20:22:42.190Z,101896.28
2023-05-13T20:25:15.643Z,101893.00
2023-05-13T20:28:05.310Z,101897.81
2023-05-13T20:30:46.914Z,101903.41
2023-05-13T20:33:21.010Z,101897.81
2023-05-13T20:36:01.454Z,101896.97
2023-05-13T20:38:31.075Z,101892.19
2023-05-13T20:41:07.713Z,101902.59
2023-05-13T20:43:54.135Z,101897.81
2023-05-13T20:46:28.136Z,101905.06
2023-05-13T20:49:13.827Z,101905.06
2023-05-13T20:51:45.615Z,101897.81
2023-05-13T20:54:14.010Z,101901.78
2023-05-13T20:56:56.728Z,101896.16
2023-05-13T20:59:29.470Z,101896.16
2023-05-13T21:02:04.731Z,101899.78
2023-05-13T21:04:37.954Z,101898.97
2023-05-13T21:07:37.404Z,101894.53
2023-05-13T21:10:12.198Z,101904.59
2023-05-13T21:12:48.852Z,101892.19
2023-05-13T21:15:20.494Z,101889.38
2023-05-13T21:18:03.023Z,101890.56
2023-05-13T21:20:40.813Z,101894.53
2023-05-13T21:23:13.647Z,101889.25
2023-05-13T21:26:15.742Z,101887.28
2023-05-13T21:28:49.889Z,101892.91
2023-05-13T21:34:59.556Z,101898.53
2023-05-13T21:37:32.087Z,101900.16
2023-05-13T21:40:12.293Z,101894.53
2023-05-13T21:42:58.260Z,101893.72
2023-05-13T21:45:43.579Z,101899.34
2023-05-13T21:48:21.702Z,101897.69
2023-05-13T21:50:57.827Z,101892.91
2023-05-13T21:53:37.938Z,101903.28
2023-05-13T21:56:23.546Z,101890.44
2023-05-13T21:58:59.756Z,101891.25
2023-05-13T22:01:51.004Z,101892.91
2023-05-13T22:04:32.017Z,101893.72
2023-05-13T22:07:03.997Z,101897.34
2023-05-13T22:09:49.756Z,101892.91
2023-05-13T22:12:23.872Z,101898.53
2023-05-13T22:14:58.581Z,101895.22
2023-05-13T22:17:36.464Z,101902.47
2023-05-13T22:20:20.981Z,101892.41
2023-05-13T22:23:00.188Z,101895.22
2023-05-13T22:29:09.752Z,101880.81
2023-05-13T22:32:09.054Z,101882.81
2023-05-13T22:35:13.173Z,101887.63
2023-05-13T22:37:54.709Z,101885.63
2023-05-13T22:40:58.866Z,101896.03
2023-05-13T22:49:38.692Z,101898.41
2023-05-13T22:52:28.837Z,101889.63
2023-05-13T22:55:12.713Z,101888.44
2023-05-13T22:57:46.131Z,101888.44
2023-05-13T23:00:26.044Z,101876.75
2023-05-13T23:02:56.704Z,101881.53
2023-05-13T23:05:33.153Z,101883.19
2023-05-13T23:08:05.474Z,101881.53
2023-05-13T23:10:39.620Z,101876.28
2023-05-13T23:13:18.036Z,101880.72
2023-05-13T23:15:56.898Z,101877.91
2023-05-13T23:18:33.013Z,101875.09
2023-05-13T23:21:05.016Z,101876.75
2023-05-13T23:23:37.659Z,101875.56
2023-05-13T23:26:09.744Z,101877.56
2023-05-13T23:28:39.353Z,101875.56
